sensor_id;sensor_type;location;lat;lon;timestamp;P1;durP1;ratioP1;P2;durP2;ratioP2
10226;SDS011;15634;48.766;2.272;2022-10-24T00:00:47;6.55;;;2.20;;
10226;SDS011;15634;48.766;2.272;2022-10-24T00:03:13;9.15;;;2.72;;
10226;SDS011;15634;48.766;2.272;2022-10-24T00:05:40;9.20;;;2.25;;
10226;SDS011;15634;48.766;2.272;2022-10-24T00:08:07;8.88;;;2.20;;
10226;SDS011;15634;48.766;2.272;2022-10-24T00:10:35;6.50;;;2.13;;
10226;SDS011;15634;48.766;2.272;2022-10-24T00:13:02;7.93;;;2.17;;
10226;SDS011;15634;48.766;2.272;2022-10-24T00:15:29;4.43;;;2.20;;
10226;SDS011;15634;48.766;2.272;2022-10-24T00:17:55;8.00;;;2.22;;
10226;SDS011;15634;48.766;2.272;2022-10-24T00:20:22;6.85;;;2.42;;
10226;SDS011;15634;48.766;2.272;2022-10-24T00:22:48;7.45;;;2.40;;
10226;SDS011;15634;48.766;2.272;2022-10-24T00:25:15;9.02;;;2.65;;
10226;SDS011;15634;48.766;2.272;2022-10-24T00:27:43;4.60;;;2.08;;
10226;SDS011;15634;48.766;2.272;2022-10-24T00:30:10;5.55;;;2.20;;
10226;SDS011;15634;48.766;2.272;2022-10-24T00:32:37;8.27;;;2.45;;
10226;SDS011;15634;48.766;2.272;2022-10-24T00:35:04;9.18;;;2.17;;
10226;SDS011;15634;48.766;2.272;2022-10-24T00:37:31;12.00;;;2.85;;
10226;SDS011;15634;48.766;2.272;2022-10-24T00:39:57;6.22;;;2.10;;
10226;SDS011;15634;48.766;2.272;2022-10-24T00:42:24;8.88;;;2.58;;
10226;SDS011;15634;48.766;2.272;2022-10-24T00:44:52;6.57;;;2.40;;
10226;SDS011;15634;48.766;2.272;2022-10-24T00:47:19;10.90;;;2.42;;
10226;SDS011;15634;48.766;2.272;2022-10-24T00:49:48;7.07;;;2.40;;
10226;SDS011;15634;48.766;2.272;2022-10-24T00:52:17;5.78;;;2.05;;
10226;SDS011;15634;48.766;2.272;2022-10-24T00:54:47;8.55;;;2.40;;
10226;SDS011;15634;48.766;2.272;2022-10-24T00:57:15;10.48;;;2.63;;
10226;SDS011;15634;48.766;2.272;2022-10-24T00:59:45;9.00;;;2.47;;
10226;SDS011;15634;48.766;2.272;2022-10-24T01:02:16;7.78;;;2.22;;
10226;SDS011;15634;48.766;2.272;2022-10-24T01:04:42;9.38;;;2.42;;
10226;SDS011;15634;48.766;2.272;2022-10-24T01:07:14;10.82;;;2.47;;
10226;SDS011;15634;48.766;2.272;2022-10-24T01:12:51;11.73;;;2.60;;
10226;SDS011;15634;48.766;2.272;2022-10-24T01:15:22;6.43;;;2.20;;
10226;SDS011;15634;48.766;2.272;2022-10-24T01:17:56;12.70;;;2.75;;
10226;SDS011;15634;48.766;2.272;2022-10-24T01:20:29;7.53;;;2.40;;
10226;SDS011;15634;48.766;2.272;2022-10-24T01:23:21;8.98;;;2.50;;
10226;SDS011;15634;48.766;2.272;2022-10-24T01:25:55;8.40;;;2.58;;
10226;SDS011;15634;48.766;2.272;2022-10-24T01:28:28;7.22;;;2.35;;
10226;SDS011;15634;48.766;2.272;2022-10-24T01:31:01;9.63;;;2.88;;
10226;SDS011;15634;48.766;2.272;2022-10-24T01:33:31;10.05;;;2.88;;
10226;SDS011;15634;48.766;2.272;2022-10-24T01:36:00;11.43;;;2.88;;
10226;SDS011;15634;48.766;2.272;2022-10-24T01:38:30;11.75;;;2.90;;
10226;SDS011;15634;48.766;2.272;2022-10-24T01:41:00;9.05;;;2.63;;
10226;SDS011;15634;48.766;2.272;2022-10-24T01:43:30;10.07;;;2.55;;
10226;SDS011;15634;48.766;2.272;2022-10-24T01:46:02;12.20;;;2.75;;
10226;SDS011;15634;48.766;2.272;2022-10-24T01:48:30;7.45;;;2.30;;
10226;SDS011;15634;48.766;2.272;2022-10-24T01:51:00;7.75;;;2.65;;
10226;SDS011;15634;48.766;2.272;2022-10-24T01:53:28;10.10;;;2.67;;
10226;SDS011;15634;48.766;2.272;2022-10-24T01:55:55;9.45;;;2.63;;
10226;SDS011;15634;48.766;2.272;2022-10-24T01:58:22;12.45;;;2.75;;
10226;SDS011;15634;48.766;2.272;2022-10-24T02:00:50;10.98;;;2.67;;
10226;SDS011;15634;48.766;2.272;2022-10-24T02:03:20;8.70;;;2.60;;
10226;SDS011;15634;48.766;2.272;2022-10-24T02:05:49;10.88;;;2.60;;
10226;SDS011;15634;48.766;2.272;2022-10-24T02:08:18;13.15;;;2.38;;
10226;SDS011;15634;48.766;2.272;2022-10-24T02:10:48;11.65;;;3.20;;
10226;SDS011;15634;48.766;2.272;2022-10-24T02:13:18;12.98;;;3.35;;
10226;SDS011;15634;48.766;2.272;2022-10-24T02:15:49;12.48;;;2.60;;
10226;SDS011;15634;48.766;2.272;2022-10-24T02:18:17;9.20;;;2.97;;
10226;SDS011;15634;48.766;2.272;2022-10-24T02:20:47;12.05;;;2.85;;
10226;SDS011;15634;48.766;2.272;2022-10-24T02:23:20;16.63;;;3.10;;
10226;SDS011;15634;48.766;2.272;2022-10-24T02:25:52;15.03;;;3.40;;
10226;SDS011;15634;48.766;2.272;2022-10-24T02:28:22;13.38;;;2.70;;
10226;SDS011;15634;48.766;2.272;2022-10-24T02:30:50;11.38;;;2.95;;
10226;SDS011;15634;48.766;2.272;2022-10-24T02:33:21;12.38;;;2.92;;
10226;SDS011;15634;48.766;2.272;2022-10-24T02:35:48;17.48;;;3.65;;
10226;SDS011;15634;48.766;2.272;2022-10-24T02:38:17;16.25;;;3.05;;
10226;SDS011;15634;48.766;2.272;2022-10-24T02:40:46;14.82;;;2.95;;
10226;SDS011;15634;48.766;2.272;2022-10-24T02:43:13;8.75;;;3.05;;
10226;SDS011;15634;48.766;2.272;2022-10-24T02:45:42;13.88;;;3.08;;
10226;SDS011;15634;48.766;2.272;2022-10-24T02:48:10;10.40;;;3.25;;
10226;SDS011;15634;48.766;2.272;2022-10-24T02:50:39;13.18;;;2.97;;
10226;SDS011;15634;48.766;2.272;2022-10-24T02:53:07;11.23;;;3.10;;
10226;SDS011;15634;48.766;2.272;2022-10-24T02:55:34;12.57;;;2.97;;
10226;SDS011;15634;48.766;2.272;2022-10-24T02:58:01;9.88;;;2.67;;
10226;SDS011;15634;48.766;2.272;2022-10-24T03:00:27;17.33;;;3.47;;
10226;SDS011;15634;48.766;2.272;2022-10-24T03:02:54;11.90;;;2.92;;
10226;SDS011;15634;48.766;2.272;2022-10-24T03:05:20;11.13;;;2.88;;
10226;SDS011;15634;48.766;2.272;2022-10-24T03:07:48;13.82;;;3.50;;
10226;SDS011;15634;48.766;2.272;2022-10-24T03:10:15;13.88;;;3.40;;
10226;SDS011;15634;48.766;2.272;2022-10-24T03:12:41;13.30;;;2.90;;
10226;SDS011;15634;48.766;2.272;2022-10-24T03:15:08;14.00;;;3.63;;
10226;SDS011;15634;48.766;2.272;2022-10-24T03:17:35;19.52;;;3.75;;
10226;SDS011;15634;48.766;2.272;2022-10-24T03:20:02;16.45;;;3.40;;
10226;SDS011;15634;48.766;2.272;2022-10-24T03:22:29;14.32;;;3.25;;
10226;SDS011;15634;48.766;2.272;2022-10-24T03:24:57;12.90;;;3.28;;
10226;SDS011;15634;48.766;2.272;2022-10-24T03:27:25;15.05;;;3.42;;
10226;SDS011;15634;48.766;2.272;2022-10-24T03:29:52;13.63;;;3.30;;
10226;SDS011;15634;48.766;2.272;2022-10-24T03:32:19;15.45;;;3.47;;
10226;SDS011;15634;48.766;2.272;2022-10-24T03:34:45;15.05;;;3.53;;
10226;SDS011;15634;48.766;2.272;2022-10-24T03:37:12;12.00;;;3.22;;
10226;SDS011;15634;48.766;2.272;2022-10-24T03:39:38;14.55;;;3.65;;
10226;SDS011;15634;48.766;2.272;2022-10-24T03:42:06;12.00;;;3.20;;
10226;SDS011;15634;48.766;2.272;2022-10-24T03:44:33;13.93;;;3.78;;
10226;SDS011;15634;48.766;2.272;2022-10-24T03:46:59;17.88;;;4.22;;
10226;SDS011;15634;48.766;2.272;2022-10-24T03:49:26;15.82;;;3.88;;
10226;SDS011;15634;48.766;2.272;2022-10-24T03:51:53;18.17;;;3.95;;
10226;SDS011;15634;48.766;2.272;2022-10-24T03:54:19;21.02;;;4.00;;
10226;SDS011;15634;48.766;2.272;2022-10-24T03:56:46;15.00;;;3.30;;
10226;SDS011;15634;48.766;2.272;2022-10-24T03:59:14;20.45;;;4.03;;
10226;SDS011;15634;48.766;2.272;2022-10-24T04:01:41;15.93;;;3.70;;
10226;SDS011;15634;48.766;2.272;2022-10-24T04:04:08;20.83;;;3.72;;
10226;SDS011;15634;48.766;2.272;2022-10-24T04:06:34;17.23;;;3.42;;
10226;SDS011;15634;48.766;2.272;2022-10-24T04:09:01;15.80;;;3.90;;
10226;SDS011;15634;48.766;2.272;2022-10-24T04:11:28;14.75;;;3.65;;
10226;SDS011;15634;48.766;2.272;2022-10-24T04:13:54;18.27;;;3.60;;
10226;SDS011;15634;48.766;2.272;2022-10-24T04:16:22;13.18;;;3.55;;
10226;SDS011;15634;48.766;2.272;2022-10-24T04:18:49;16.77;;;3.60;;
10226;SDS011;15634;48.766;2.272;2022-10-24T04:21:16;12.45;;;3.33;;
10226;SDS011;15634;48.766;2.272;2022-10-24T04:23:43;17.00;;;3.90;;
10226;SDS011;15634;48.766;2.272;2022-10-24T04:26:09;12.98;;;3.78;;
10226;SDS011;15634;48.766;2.272;2022-10-24T04:28:37;14.95;;;3.83;;
10226;SDS011;15634;48.766;2.272;2022-10-24T04:31:04;13.48;;;3.47;;
10226;SDS011;15634;48.766;2.272;2022-10-24T04:33:32;18.13;;;4.10;;
10226;SDS011;15634;48.766;2.272;2022-10-24T04:36:00;21.05;;;6.28;;
10226;SDS011;15634;48.766;2.272;2022-10-24T04:38:26;15.02;;;3.72;;
10226;SDS011;15634;48.766;2.272;2022-10-24T04:40:53;18.55;;;3.47;;
10226;SDS011;15634;48.766;2.272;2022-10-24T04:43:21;17.00;;;4.57;;
10226;SDS011;15634;48.766;2.272;2022-10-24T04:45:48;16.15;;;3.53;;
10226;SDS011;15634;48.766;2.272;2022-10-24T04:48:15;13.98;;;3.33;;
10226;SDS011;15634;48.766;2.272;2022-10-24T04:50:45;18.27;;;4.55;;
10226;SDS011;15634;48.766;2.272;2022-10-24T04:53:12;14.55;;;3.90;;
10226;SDS011;15634;48.766;2.272;2022-10-24T04:55:39;17.30;;;3.60;;
10226;SDS011;15634;48.766;2.272;2022-10-24T04:58:06;20.27;;;4.10;;
10226;SDS011;15634;48.766;2.272;2022-10-24T05:00:32;15.60;;;3.90;;
10226;SDS011;15634;48.766;2.272;2022-10-24T05:02:59;12.73;;;3.60;;
10226;SDS011;15634;48.766;2.272;2022-10-24T05:05:25;13.90;;;3.80;;
10226;SDS011;15634;48.766;2.272;2022-10-24T05:07:53;19.23;;;4.07;;
10226;SDS011;15634;48.766;2.272;2022-10-24T05:10:20;16.33;;;4.50;;
10226;SDS011;15634;48.766;2.272;2022-10-24T05:12:46;15.70;;;3.60;;
10226;SDS011;15634;48.766;2.272;2022-10-24T05:15:13;15.55;;;3.47;;
10226;SDS011;15634;48.766;2.272;2022-10-24T05:17:39;19.45;;;3.78;;
10226;SDS011;15634;48.766;2.272;2022-10-24T05:20:07;13.35;;;3.35;;
10226;SDS011;15634;48.766;2.272;2022-10-24T05:22:34;16.17;;;3.72;;
10226;SDS011;15634;48.766;2.272;2022-10-24T05:25:02;18.60;;;3.63;;
10226;SDS011;15634;48.766;2.272;2022-10-24T05:27:30;18.25;;;4.00;;
10226;SDS011;15634;48.766;2.272;2022-10-24T05:29:56;14.40;;;4.00;;
10226;SDS011;15634;48.766;2.272;2022-10-24T05:32:23;17.98;;;4.10;;
10226;SDS011;15634;48.766;2.272;2022-10-24T05:34:50;12.43;;;3.55;;
10226;SDS011;15634;48.766;2.272;2022-10-24T05:37:17;17.10;;;4.13;;
10226;SDS011;15634;48.766;2.272;2022-10-24T05:39:43;14.65;;;3.38;;
10226;SDS011;15634;48.766;2.272;2022-10-24T05:42:11;17.42;;;4.00;;
10226;SDS011;15634;48.766;2.272;2022-10-24T05:44:38;17.75;;;3.60;;
10226;SDS011;15634;48.766;2.272;2022-10-24T05:47:05;13.90;;;3.80;;
10226;SDS011;15634;48.766;2.272;2022-10-24T05:49:32;13.35;;;3.78;;
10226;SDS011;15634;48.766;2.272;2022-10-24T05:51:58;20.13;;;4.28;;
10226;SDS011;15634;48.766;2.272;2022-10-24T05:54:25;18.20;;;4.10;;
10226;SDS011;15634;48.766;2.272;2022-10-24T05:56:51;20.67;;;4.35;;
10226;SDS011;15634;48.766;2.272;2022-10-24T05:59:19;15.98;;;5.38;;
10226;SDS011;15634;48.766;2.272;2022-10-24T06:01:46;14.50;;;3.90;;
10226;SDS011;15634;48.766;2.272;2022-10-24T06:04:12;17.85;;;4.47;;
10226;SDS011;15634;48.766;2.272;2022-10-24T06:06:39;18.52;;;4.68;;
10226;SDS011;15634;48.766;2.272;2022-10-24T06:09:06;20.75;;;3.97;;
10226;SDS011;15634;48.766;2.272;2022-10-24T06:11:33;17.92;;;4.10;;
10226;SDS011;15634;48.766;2.272;2022-10-24T06:13:59;17.42;;;3.95;;
10226;SDS011;15634;48.766;2.272;2022-10-24T06:16:27;20.92;;;5.15;;
10226;SDS011;15634;48.766;2.272;2022-10-24T06:18:54;22.20;;;4.07;;
10226;SDS011;15634;48.766;2.272;2022-10-24T06:21:21;15.05;;;3.45;;
10226;SDS011;15634;48.766;2.272;2022-10-24T06:23:49;22.58;;;3.95;;
10226;SDS011;15634;48.766;2.272;2022-10-24T06:26:15;24.02;;;4.95;;
10226;SDS011;15634;48.766;2.272;2022-10-24T06:28:42;20.77;;;4.63;;
10226;SDS011;15634;48.766;2.272;2022-10-24T06:31:08;19.58;;;4.13;;
10226;SDS011;15634;48.766;2.272;2022-10-24T06:33:38;19.50;;;4.18;;
10226;SDS011;15634;48.766;2.272;2022-10-24T06:36:05;15.93;;;4.15;;
10226;SDS011;15634;48.766;2.272;2022-10-24T06:38:33;16.35;;;4.07;;
10226;SDS011;15634;48.766;2.272;2022-10-24T06:41:04;16.70;;;3.92;;
10226;SDS011;15634;48.766;2.272;2022-10-24T06:43:31;12.90;;;4.20;;
10226;SDS011;15634;48.766;2.272;2022-10-24T06:45:57;17.52;;;4.78;;
10226;SDS011;15634;48.766;2.272;2022-10-24T06:48:24;17.73;;;4.05;;
10226;SDS011;15634;48.766;2.272;2022-10-24T06:50:52;16.35;;;4.45;;
10226;SDS011;15634;48.766;2.272;2022-10-24T06:53:18;16.75;;;4.03;;
10226;SDS011;15634;48.766;2.272;2022-10-24T06:55:45;15.80;;;4.07;;
10226;SDS011;15634;48.766;2.272;2022-10-24T06:58:11;21.88;;;4.85;;
10226;SDS011;15634;48.766;2.272;2022-10-24T07:00:38;17.08;;;4.38;;
10226;SDS011;15634;48.766;2.272;2022-10-24T07:03:04;16.00;;;4.00;;
10226;SDS011;15634;48.766;2.272;2022-10-24T07:05:31;16.77;;;4.10;;
10226;SDS011;15634;48.766;2.272;2022-10-24T07:07:59;15.18;;;3.78;;
10226;SDS011;15634;48.766;2.272;2022-10-24T07:10:26;18.23;;;4.50;;
10226;SDS011;15634;48.766;2.272;2022-10-24T07:12:52;22.10;;;4.13;;
10226;SDS011;15634;48.766;2.272;2022-10-24T07:15:19;22.17;;;4.00;;
10226;SDS011;15634;48.766;2.272;2022-10-24T07:17:45;16.23;;;3.78;;
10226;SDS011;15634;48.766;2.272;2022-10-24T07:20:12;14.40;;;3.70;;
10226;SDS011;15634;48.766;2.272;2022-10-24T07:22:39;25.38;;;3.75;;
10226;SDS011;15634;48.766;2.272;2022-10-24T07:25:08;19.05;;;4.13;;
10226;SDS011;15634;48.766;2.272;2022-10-24T07:27:34;15.25;;;3.90;;
10226;SDS011;15634;48.766;2.272;2022-10-24T07:30:01;21.38;;;3.83;;
10226;SDS011;15634;48.766;2.272;2022-10-24T07:32:28;15.73;;;4.28;;
10226;SDS011;15634;48.766;2.272;2022-10-24T07:34:54;14.15;;;3.78;;
10226;SDS011;15634;48.766;2.272;2022-10-24T07:37:21;18.73;;;4.43;;
10226;SDS011;15634;48.766;2.272;2022-10-24T07:39:48;18.65;;;4.10;;
10226;SDS011;15634;48.766;2.272;2022-10-24T07:42:16;18.65;;;3.80;;
10226;SDS011;15634;48.766;2.272;2022-10-24T07:44:43;18.55;;;4.60;;
10226;SDS011;15634;48.766;2.272;2022-10-24T07:47:09;23.30;;;4.55;;
10226;SDS011;15634;48.766;2.272;2022-10-24T07:49:36;18.88;;;4.43;;
10226;SDS011;15634;48.766;2.272;2022-10-24T07:52:03;12.95;;;3.70;;
10226;SDS011;15634;48.766;2.272;2022-10-24T07:54:30;15.73;;;3.67;;
10226;SDS011;15634;48.766;2.272;2022-10-24T07:56:57;20.65;;;4.40;;
10226;SDS011;15634;48.766;2.272;2022-10-24T07:59:25;18.10;;;4.30;;
10226;SDS011;15634;48.766;2.272;2022-10-24T08:01:51;20.85;;;3.55;;
10226;SDS011;15634;48.766;2.272;2022-10-24T08:04:18;19.67;;;3.90;;
10226;SDS011;15634;48.766;2.272;2022-10-24T08:06:44;15.95;;;4.35;;
10226;SDS011;15634;48.766;2.272;2022-10-24T08:09:11;13.07;;;4.03;;
10226;SDS011;15634;48.766;2.272;2022-10-24T08:11:37;21.92;;;4.55;;
10226;SDS011;15634;48.766;2.272;2022-10-24T08:14:04;13.63;;;4.05;;
10226;SDS011;15634;48.766;2.272;2022-10-24T08:16:32;18.80;;;3.95;;
10226;SDS011;15634;48.766;2.272;2022-10-24T08:18:58;18.65;;;4.13;;
10226;SDS011;15634;48.766;2.272;2022-10-24T08:21:25;19.42;;;4.03;;
10226;SDS011;15634;48.766;2.272;2022-10-24T08:23:52;17.95;;;4.18;;
10226;SDS011;15634;48.766;2.272;2022-10-24T08:26:20;21.17;;;4.85;;
10226;SDS011;15634;48.766;2.272;2022-10-24T08:28:48;19.67;;;3.83;;
10226;SDS011;15634;48.766;2.272;2022-10-24T08:31:16;21.45;;;3.97;;
10226;SDS011;15634;48.766;2.272;2022-10-24T08:33:45;19.55;;;4.05;;
10226;SDS011;15634;48.766;2.272;2022-10-24T08:36:14;16.13;;;3.55;;
10226;SDS011;15634;48.766;2.272;2022-10-24T08:38:43;18.92;;;3.72;;
10226;SDS011;15634;48.766;2.272;2022-10-24T08:41:11;17.25;;;4.07;;
10226;SDS011;15634;48.766;2.272;2022-10-24T08:43:41;17.52;;;3.63;;
10226;SDS011;15634;48.766;2.272;2022-10-24T08:46:11;18.33;;;4.28;;
10226;SDS011;15634;48.766;2.272;2022-10-24T08:48:48;16.17;;;3.67;;
10226;SDS011;15634;48.766;2.272;2022-10-24T08:51:18;15.70;;;4.32;;
10226;SDS011;15634;48.766;2.272;2022-10-24T08:53:49;16.67;;;3.72;;
10226;SDS011;15634;48.766;2.272;2022-10-24T08:56:17;21.00;;;3.95;;
10226;SDS011;15634;48.766;2.272;2022-10-24T08:58:44;18.75;;;4.57;;
10226;SDS011;15634;48.766;2.272;2022-10-24T09:01:12;24.75;;;3.85;;
10226;SDS011;15634;48.766;2.272;2022-10-24T09:03:42;15.43;;;3.67;;
10226;SDS011;15634;48.766;2.272;2022-10-24T09:06:15;15.18;;;4.05;;
10226;SDS011;15634;48.766;2.272;2022-10-24T09:08:45;17.08;;;3.88;;
10226;SDS011;15634;48.766;2.272;2022-10-24T09:11:18;13.93;;;3.58;;
10226;SDS011;15634;48.766;2.272;2022-10-24T09:13:47;15.57;;;4.35;;
10226;SDS011;15634;48.766;2.272;2022-10-24T09:16:16;15.25;;;4.40;;
10226;SDS011;15634;48.766;2.272;2022-10-24T09:18:46;17.25;;;4.38;;
10226;SDS011;15634;48.766;2.272;2022-10-24T09:21:15;19.83;;;4.00;;
10226;SDS011;15634;48.766;2.272;2022-10-24T09:23:42;17.23;;;4.50;;
10226;SDS011;15634;48.766;2.272;2022-10-24T09:26:12;14.45;;;3.42;;
10226;SDS011;15634;48.766;2.272;2022-10-24T09:28:41;13.00;;;4.20;;
10226;SDS011;15634;48.766;2.272;2022-10-24T09:31:12;16.48;;;3.30;;
10226;SDS011;15634;48.766;2.272;2022-10-24T09:33:40;11.15;;;3.33;;
10226;SDS011;15634;48.766;2.272;2022-10-24T09:36:08;13.18;;;3.55;;
10226;SDS011;15634;48.766;2.272;2022-10-24T09:38:39;16.08;;;4.28;;
10226;SDS011;15634;48.766;2.272;2022-10-24T09:41:15;17.02;;;3.85;;
10226;SDS011;15634;48.766;2.272;2022-10-24T09:43:47;17.75;;;3.90;;
10226;SDS011;15634;48.766;2.272;2022-10-24T09:48:46;18.30;;;4.25;;
10226;SDS011;15634;48.766;2.272;2022-10-24T09:51:19;16.27;;;3.65;;
10226;SDS011;15634;48.766;2.272;2022-10-24T09:53:59;14.00;;;4.05;;
10226;SDS011;15634;48.766;2.272;2022-10-24T09:56:32;22.30;;;4.18;;
10226;SDS011;15634;48.766;2.272;2022-10-24T09:59:14;13.23;;;3.22;;
10226;SDS011;15634;48.766;2.272;2022-10-24T10:01:43;13.15;;;3.15;;
10226;SDS011;15634;48.766;2.272;2022-10-24T10:04:14;13.98;;;3.63;;
10226;SDS011;15634;48.766;2.272;2022-10-24T10:06:42;16.88;;;4.13;;
10226;SDS011;15634;48.766;2.272;2022-10-24T10:09:12;18.27;;;3.70;;
10226;SDS011;15634;48.766;2.272;2022-10-24T10:11:39;14.77;;;3.42;;
10226;SDS011;15634;48.766;2.272;2022-10-24T10:14:15;12.93;;;3.17;;
10226;SDS011;15634;48.766;2.272;2022-10-24T10:16:47;13.32;;;3.58;;
10226;SDS011;15634;48.766;2.272;2022-10-24T10:19:24;11.48;;;3.33;;
10226;SDS011;15634;48.766;2.272;2022-10-24T10:21:52;10.90;;;3.53;;
10226;SDS011;15634;48.766;2.272;2022-10-24T10:24:25;10.73;;;3.38;;
10226;SDS011;15634;48.766;2.272;2022-10-24T10:26:53;10.80;;;3.40;;
10226;SDS011;15634;48.766;2.272;2022-10-24T10:29:20;21.73;;;3.97;;
10226;SDS011;15634;48.766;2.272;2022-10-24T10:31:48;14.52;;;3.72;;
10226;SDS011;15634;48.766;2.272;2022-10-24T10:34:16;13.68;;;3.20;;
10226;SDS011;15634;48.766;2.272;2022-10-24T10:36:50;13.57;;;3.20;;
10226;SDS011;15634;48.766;2.272;2022-10-24T10:39:33;12.50;;;3.55;;
10226;SDS011;15634;48.766;2.272;2022-10-24T10:42:10;16.60;;;3.83;;
10226;SDS011;15634;48.766;2.272;2022-10-24T10:44:43;16.63;;;3.72;;
10226;SDS011;15634;48.766;2.272;2022-10-24T10:47:22;15.05;;;4.00;;
10226;SDS011;15634;48.766;2.272;2022-10-24T10:49:59;12.48;;;3.42;;
10226;SDS011;15634;48.766;2.272;2022-10-24T10:52:28;13.75;;;3.20;;
10226;SDS011;15634;48.766;2.272;2022-10-24T10:55:04;14.45;;;3.45;;
10226;SDS011;15634;48.766;2.272;2022-10-24T10:57:40;11.52;;;3.20;;
10226;SDS011;15634;48.766;2.272;2022-10-24T11:00:19;10.38;;;2.95;;
10226;SDS011;15634;48.766;2.272;2022-10-24T11:05:48;11.93;;;3.30;;
10226;SDS011;15634;48.766;2.272;2022-10-24T11:08:23;15.52;;;3.13;;
10226;SDS011;15634;48.766;2.272;2022-10-24T11:10:58;15.10;;;3.22;;
10226;SDS011;15634;48.766;2.272;2022-10-24T11:13:30;17.08;;;3.20;;
10226;SDS011;15634;48.766;2.272;2022-10-24T11:15:59;11.25;;;3.13;;
10226;SDS011;15634;48.766;2.272;2022-10-24T11:18:29;12.10;;;3.25;;
10226;SDS011;15634;48.766;2.272;2022-10-24T11:20:56;10.57;;;3.30;;
10226;SDS011;15634;48.766;2.272;2022-10-24T11:23:27;11.43;;;2.92;;
10226;SDS011;15634;48.766;2.272;2022-10-24T11:25:59;11.10;;;3.28;;
10226;SDS011;15634;48.766;2.272;2022-10-24T11:28:29;12.98;;;3.28;;
10226;SDS011;15634;48.766;2.272;2022-10-24T11:30:59;9.23;;;3.20;;
10226;SDS011;15634;48.766;2.272;2022-10-24T11:33:28;10.20;;;3.03;;
10226;SDS011;15634;48.766;2.272;2022-10-24T11:36:10;12.18;;;3.40;;
10226;SDS011;15634;48.766;2.272;2022-10-24T11:38:42;15.65;;;3.80;;
10226;SDS011;15634;48.766;2.272;2022-10-24T11:41:25;10.05;;;3.25;;
10226;SDS011;15634;48.766;2.272;2022-10-24T11:44:00;17.17;;;4.00;;
10226;SDS011;15634;48.766;2.272;2022-10-24T11:46:32;10.95;;;2.92;;
10226;SDS011;15634;48.766;2.272;2022-10-24T11:49:02;13.07;;;3.20;;
10226;SDS011;15634;48.766;2.272;2022-10-24T11:51:34;15.15;;;3.05;;
10226;SDS011;15634;48.766;2.272;2022-10-24T11:54:03;13.77;;;3.47;;
10226;SDS011;15634;48.766;2.272;2022-10-24T11:56:34;13.35;;;3.53;;
10226;SDS011;15634;48.766;2.272;2022-10-24T11:59:04;17.08;;;3.65;;
10226;SDS011;15634;48.766;2.272;2022-10-24T12:04:27;11.40;;;3.50;;
10226;SDS011;15634;48.766;2.272;2022-10-24T12:07:19;11.80;;;3.42;;
10226;SDS011;15634;48.766;2.272;2022-10-24T12:10:03;9.88;;;3.42;;
10226;SDS011;15634;48.766;2.272;2022-10-24T12:15:53;12.88;;;3.03;;
10226;SDS011;15634;48.766;2.272;2022-10-24T12:18:26;13.52;;;3.47;;
10226;SDS011;15634;48.766;2.272;2022-10-24T12:20:55;14.15;;;3.08;;
10226;SDS011;15634;48.766;2.272;2022-10-24T12:23:26;11.50;;;2.67;;
10226;SDS011;15634;48.766;2.272;2022-10-24T12:26:02;11.10;;;3.20;;
10226;SDS011;15634;48.766;2.272;2022-10-24T12:28:31;11.82;;;3.00;;
10226;SDS011;15634;48.766;2.272;2022-10-24T12:31:08;10.15;;;3.40;;
10226;SDS011;15634;48.766;2.272;2022-10-24T12:33:37;14.27;;;3.47;;
10226;SDS011;15634;48.766;2.272;2022-10-24T12:36:03;12.27;;;3.17;;
10226;SDS011;15634;48.766;2.272;2022-10-24T12:53:31;12.88;;;3.10;;
10226;SDS011;15634;48.766;2.272;2022-10-24T12:56:15;16.23;;;2.85;;
10226;SDS011;15634;48.766;2.272;2022-10-24T12:58:44;8.95;;;2.72;;
10226;SDS011;15634;48.766;2.272;2022-10-24T13:01:22;13.38;;;3.20;;
10226;SDS011;15634;48.766;2.272;2022-10-24T13:04:00;12.70;;;3.03;;
10226;SDS011;15634;48.766;2.272;2022-10-24T13:06:52;14.10;;;3.08;;
10226;SDS011;15634;48.766;2.272;2022-10-24T13:09:29;11.60;;;3.20;;
10226;SDS011;15634;48.766;2.272;2022-10-24T13:12:03;12.23;;;3.40;;
10226;SDS011;15634;48.766;2.272;2022-10-24T13:17:26;11.90;;;2.88;;
10226;SDS011;15634;48.766;2.272;2022-10-24T13:20:03;10.85;;;2.67;;
10226;SDS011;15634;48.766;2.272;2022-10-24T13:22:32;9.82;;;2.92;;
10226;SDS011;15634;48.766;2.272;2022-10-24T13:34:14;7.35;;;2.83;;
10226;SDS011;15634;48.766;2.272;2022-10-24T13:36:42;14.50;;;2.92;;
10226;SDS011;15634;48.766;2.272;2022-10-24T13:39:10;8.95;;;3.00;;
10226;SDS011;15634;48.766;2.272;2022-10-24T13:41:41;8.63;;;3.00;;
10226;SDS011;15634;48.766;2.272;2022-10-24T13:44:13;7.95;;;2.50;;
10226;SDS011;15634;48.766;2.272;2022-10-24T13:46:48;10.23;;;2.65;;
10226;SDS011;15634;48.766;2.272;2022-10-24T13:49:18;10.50;;;2.58;;
10226;SDS011;15634;48.766;2.272;2022-10-24T13:51:48;8.35;;;2.60;;
10226;SDS011;15634;48.766;2.272;2022-10-24T13:54:18;9.48;;;2.58;;
10226;SDS011;15634;48.766;2.272;2022-10-24T13:56:46;10.45;;;3.03;;
10226;SDS011;15634;48.766;2.272;2022-10-24T13:59:26;8.00;;;2.60;;
10226;SDS011;15634;48.766;2.272;2022-10-24T14:01:57;12.73;;;3.00;;
10226;SDS011;15634;48.766;2.272;2022-10-24T14:04:27;10.25;;;3.53;;
10226;SDS011;15634;48.766;2.272;2022-10-24T14:06:58;10.40;;;2.78;;
10226;SDS011;15634;48.766;2.272;2022-10-24T14:09:26;9.70;;;2.90;;
10226;SDS011;15634;48.766;2.272;2022-10-24T14:11:53;10.23;;;2.80;;
10226;SDS011;15634;48.766;2.272;2022-10-24T14:14:24;8.60;;;2.28;;
10226;SDS011;15634;48.766;2.272;2022-10-24T14:17:06;9.75;;;2.40;;
10226;SDS011;15634;48.766;2.272;2022-10-24T14:19:44;5.25;;;2.08;;
10226;SDS011;15634;48.766;2.272;2022-10-24T14:22:20;9.00;;;2.72;;
10226;SDS011;15634;48.766;2.272;2022-10-24T14:24:48;7.35;;;2.25;;
10226;SDS011;15634;48.766;2.272;2022-10-24T14:27:15;10.10;;;2.70;;
10226;SDS011;15634;48.766;2.272;2022-10-24T14:29:56;7.28;;;2.28;;
10226;SDS011;15634;48.766;2.272;2022-10-24T14:32:24;8.35;;;2.33;;
10226;SDS011;15634;48.766;2.272;2022-10-24T14:34:53;12.50;;;2.83;;
10226;SDS011;15634;48.766;2.272;2022-10-24T14:37:30;9.10;;;2.65;;
10226;SDS011;15634;48.766;2.272;2022-10-24T14:39:58;9.18;;;2.45;;
10226;SDS011;15634;48.766;2.272;2022-10-24T14:42:25;7.75;;;2.47;;
10226;SDS011;15634;48.766;2.272;2022-10-24T14:44:52;7.60;;;2.25;;
10226;SDS011;15634;48.766;2.272;2022-10-24T14:47:29;8.35;;;2.40;;
10226;SDS011;15634;48.766;2.272;2022-10-24T14:49:59;6.90;;;1.95;;
10226;SDS011;15634;48.766;2.272;2022-10-24T14:52:27;6.93;;;2.10;;
10226;SDS011;15634;48.766;2.272;2022-10-24T14:54:59;7.97;;;2.15;;
10226;SDS011;15634;48.766;2.272;2022-10-24T14:57:28;6.97;;;2.33;;
10226;SDS011;15634;48.766;2.272;2022-10-24T14:59:57;6.00;;;2.38;;
10226;SDS011;15634;48.766;2.272;2022-10-24T15:02:28;9.52;;;2.40;;
10226;SDS011;15634;48.766;2.272;2022-10-24T15:05:13;9.80;;;2.45;;
10226;SDS011;15634;48.766;2.272;2022-10-24T15:07:51;10.52;;;2.63;;
10226;SDS011;15634;48.766;2.272;2022-10-24T15:10:19;7.70;;;2.45;;
10226;SDS011;15634;48.766;2.272;2022-10-24T15:12:53;8.98;;;2.40;;
10226;SDS011;15634;48.766;2.272;2022-10-24T15:15:25;5.67;;;2.03;;
10226;SDS011;15634;48.766;2.272;2022-10-24T15:17:55;4.93;;;2.00;;
10226;SDS011;15634;48.766;2.272;2022-10-24T15:20:25;8.02;;;2.50;;
10226;SDS011;15634;48.766;2.272;2022-10-24T15:22:54;9.68;;;2.55;;
10226;SDS011;15634;48.766;2.272;2022-10-24T15:25:23;6.60;;;2.05;;
10226;SDS011;15634;48.766;2.272;2022-10-24T15:27:52;7.28;;;2.20;;
10226;SDS011;15634;48.766;2.272;2022-10-24T15:30:23;7.53;;;2.00;;
10226;SDS011;15634;48.766;2.272;2022-10-24T15:32:51;7.15;;;2.30;;